Time;durP1;ratioP1;P1;durP2;ratioP2;P2;SDS_P1;SDS_P2;PMS_P1;PMS_P2;Temp;Humidity;BMP_temperature;BMP_pressure;BME280_temperature;BME280_humidity;BME280_pressure;Samples;Min_cycle;Max_cycle;Signal;HPM_P1;HPM_P2
2022/08/07 00:00:34;;;;;;;;;;;;;;;;;;5094761;28;20015;-76
2022/08/07 00:02:59;;;;;;;;;;;;;;;;;;5094359;28;20006;-75
2022/08/07 00:05:24;;;;;;;;;;;;;;;;;;5076617;28;19919;-76
2022/08/07 00:07:50;;;;;;;;;;;;;;;;;;5060271;28;19912;-75
2022/08/07 00:10:15;;;;;;;;;;;;;;;;;;5076795;28;19912;-75
2022/08/07 00:12:42;;;;;;;;;;;;;;;;;;5076088;28;20351;-75
2022/08/07 00:15:07;;;;;;;;;;;;;;;;;;5094523;28;19912;-77
2022/08/07 00:17:33;;;;;;;;;;;;;;;;;;5076319;28;19977;-75
2022/08/07 00:19:58;;;;;;;;;;;;;;;;;;5043256;28;19912;-77
2022/08/07 00:22:23;;;;;;;;;;;;;;;;;;5093625;28;19916;-76
2022/08/07 00:24:49;;;;;;;;;;;;;;;;;;5094100;28;20391;-76
2022/08/07 00:27:14;;;;;;;;;;;;;;;;;;5094375;28;20013;-75
2022/08/07 00:29:39;;;;;;;;;;;;;;;;;;5059727;28;19919;-75
2022/08/07 00:32:05;;;;;;;;;;;;;;;;;;5093929;28;20286;-76
2022/08/07 00:34:30;;;;;;;;;;;;;;;;;;5093843;28;20298;-76
2022/08/07 00:36:56;;;;;;;;;;;;;;;;;;5094023;28;20003;-76
2022/08/07 00:39:21;;;;;;;;;;;;;;;;;;5093303;28;20004;-76
2022/08/07 00:41:46;;;;;;;;;;;;;;;;;;5059448;28;20302;-77
2022/08/07 00:44:12;;;;;;;;;;;;;;;;;;5094003;28;19958;-75
2022/08/07 00:46:37;;;;;;;;;;;;;;;;;;5094295;28;20381;-75
2022/08/07 00:49:02;;;;;;;;;;;;;;;;;;5076093;28;19912;-76
2022/08/07 00:51:28;;;;;;;;;;;;;;;;;;5076241;28;19912;-75
2022/08/07 00:53:53;;;;;;;;;;;;;;;;;;5075840;28;20294;-76
2022/08/07 00:56:19;;;;;;;;;;;;;;;;;;5075562;28;19919;-76
2022/08/07 00:58:44;;;;;;;;;;;;;;;;;;5093765;28;19912;-77
2022/08/07 01:01:10;;;;;;;;;;;;;;;;;;5075620;28;19916;-77
2022/08/07 01:03:35;;;;;;;;;;;;;;;;;;5075117;28;19913;-76
2022/08/07 01:06:01;;;;;;;;;;;;;;;;;;5075500;28;20576;-76
2022/08/07 01:08:27;;;;;;;;;;;;;;;;;;5075437;28;19913;-76
2022/08/07 01:10:52;;;;;;;;;;;;;;;;;;5093435;28;19923;-76
2022/08/07 01:13:18;;;;;;;;;;;;;;;;;;5093022;28;19912;-75
2022/08/07 01:15:43;;;;;;;;;;;;;;;;;;5075099;28;19912;-76
2022/08/07 01:18:09;;;;;;;;;;;;;;;;;;5075262;28;19916;-75
2022/08/07 01:20:34;;;;;;;;;;;;;;;;;;5093372;28;20371;-75
2022/08/07 01:22:59;;;;;;;;;;;;;;;;;;5074611;28;19912;-76
2022/08/07 01:25:25;;;;;;;;;;;;;;;;;;5074971;28;19961;-76
2022/08/07 01:27:51;;;;;;;;;;;;;;;;;;5074982;28;20263;-76
2022/08/07 01:30:16;;;;;;;;;;;;;;;;;;5074873;28;19961;-75
2022/08/07 01:32:41;;;;;;;;;;;;;;;;;;5074377;28;20003;-75
2022/08/07 01:35:07;;;;;;;;;;;;;;;;;;5074767;28;20053;-77
2022/08/07 01:37:32;;;;;;;;;;;;;;;;;;5074888;28;19912;-76
2022/08/07 01:40:00;;;;;;;;;;;;;;;;;;5074725;28;19919;-75
2022/08/07 01:42:31;;;;;;;;;;;;;;;;;;5074354;28;20395;-77
2022/08/07 01:44:56;;;;;;;;;;;;;;;;;;5074638;28;19991;-76
2022/08/07 01:47:22;;;;;;;;;;;;;;;;;;5074577;28;19913;-76
2022/08/07 01:49:47;;;;;;;;;;;;;;;;;;5057978;28;19918;-76
2022/08/07 01:52:13;;;;;;;;;;;;;;;;;;5057851;28;19912;-75
2022/08/07 01:54:38;;;;;;;;;;;;;;;;;;5057190;28;19947;-77
2022/08/07 01:57:07;;;;;;;;;;;;;;;;;;5058008;28;19912;-76
2022/08/07 01:59:33;;;;;;;;;;;;;;;;;;5058073;28;19965;-76
2022/08/07 02:01:58;;;;;;;;;;;;;;;;;;5074430;28;19924;-76
2022/08/07 02:04:24;;;;;;;;;;;;;;;;;;5074232;28;19912;-75
2022/08/07 02:06:51;;;;;;;;;;;;;;;;;;5057933;28;20386;-75
2022/08/07 02:09:17;;;;;;;;;;;;;;;;;;5057724;28;19981;-75
2022/08/07 02:11:43;;;;;;;;;;;;;;;;;;5074382;28;20377;-75
2022/08/07 02:14:09;;;;;;;;;;;;;;;;;;5073841;28;19908;-76
2022/08/07 02:16:34;;;;;;;;;;;;;;;;;;5092209;28;19923;-76
2022/08/07 02:19:00;;;;;;;;;;;;;;;;;;5074162;28;19916;-75
2022/08/07 02:21:25;;;;;;;;;;;;;;;;;;5057361;28;19916;-76
2022/08/07 02:23:51;;;;;;;;;;;;;;;;;;5056828;28;19919;-75
2022/08/07 02:26:16;;;;;;;;;;;;;;;;;;5074254;28;19938;-75
2022/08/07 02:28:41;;;;;;;;;;;;;;;;;;5092368;28;20330;-75
2022/08/07 02:31:07;;;;;;;;;;;;;;;;;;5074194;28;19919;-75
2022/08/07 02:33:32;;;;;;;;;;;;;;;;;;5057016;28;19916;-76
2022/08/07 02:35:57;;;;;;;;;;;;;;;;;;5074032;28;19912;-75
2022/08/07 02:38:26;;;;;;;;;;;;;;;;;;5074087;28;19912;-76
2022/08/07 02:40:51;;;;;;;;;;;;;;;;;;5057523;28;19912;-75
2022/08/07 02:43:17;;;;;;;;;;;;;;;;;;5073590;28;20006;-76
2022/08/07 02:45:43;;;;;;;;;;;;;;;;;;5057364;28;20305;-75
2022/08/07 02:48:09;;;;;;;;;;;;;;;;;;5073956;28;19961;-76
2022/08/07 02:50:34;;;;;;;;;;;;;;;;;;5073903;28;20384;-77
2022/08/07 02:53:02;;;;;;;;;;;;;;;;;;5073729;28;20481;-76
2022/08/07 02:55:28;;;;;;;;;;;;;;;;;;5075394;28;19912;-76
2022/08/07 02:57:54;;;;;;;;;;;;;;;;;;5074177;28;19977;-75
2022/08/07 03:00:20;;;;;;;;;;;;;;;;;;5073947;28;20284;-76
2022/08/07 03:02:46;;;;;;;;;;;;;;;;;;5094594;28;19969;-76
2022/08/07 03:05:13;;;;;;;;;;;;;;;;;;5078358;28;19912;-76
2022/08/07 03:07:38;;;;;;;;;;;;;;;;;;5096125;28;20260;-75
2022/08/07 03:10:04;;;;;;;;;;;;;;;;;;5077959;28;19912;-75
2022/08/07 03:12:29;;;;;;;;;;;;;;;;;;5095646;28;19912;-76
2022/08/07 03:14:55;;;;;;;;;;;;;;;;;;5096026;28;19908;-76
2022/08/07 03:17:20;;;;;;;;;;;;;;;;;;5077730;28;20366;-76
2022/08/07 03:19:46;;;;;;;;;;;;;;;;;;5077417;28;19912;-75
2022/08/07 03:22:12;;;;;;;;;;;;;;;;;;5077257;28;19920;-74
2022/08/07 03:24:37;;;;;;;;;;;;;;;;;;5077180;28;19912;-76
2022/08/07 03:27:03;;;;;;;;;;;;;;;;;;5095476;28;19955;-76
2022/08/07 03:29:38;;;;;;;;;;;;;;;;;;5095534;28;20393;-75
2022/08/07 03:32:06;;;;;;;;;;;;;;;;;;5077458;28;19912;-76
2022/08/07 03:34:31;;;;;;;;;;;;;;;;;;5090571;22;19924;-80
2022/08/07 03:36:57;;;;;;;;;;;;;;;;;;5060500;28;19917;-80
2022/08/07 03:39:23;;;;;;;;;;;;;;;;;;5042028;28;19915;-80
2022/08/07 03:41:48;;;;;;;;;;;;;;;;;;5057939;28;19959;-80
2022/08/07 03:44:14;;;;;;;;;;;;;;;;;;5074466;28;20351;-79
2022/08/07 03:46:40;;;;;;;;;;;;;;;;;;5074879;28;19920;-79
2022/08/07 03:49:06;;;;;;;;;;;;;;;;;;5040315;28;19913;-80
2022/08/07 03:51:37;;;;;;;;;;;;;;;;;;5040527;28;19917;-79
2022/08/07 03:54:02;;;;;;;;;;;;;;;;;;5056458;28;19962;-80
2022/08/07 03:56:28;;;;;;;;;;;;;;;;;;5040165;28;19916;-80
2022/08/07 03:58:54;;;;;;;;;;;;;;;;;;5074323;28;19913;-80
2022/08/07 04:01:21;;;;;;;;;;;;;;;;;;5056650;28;19920;-79
2022/08/07 04:03:47;;;;;;;;;;;;;;;;;;5056013;28;19934;-80
2022/08/07 04:06:12;;;;;;;;;;;;;;;;;;5040161;28;19920;-79
2022/08/07 04:08:38;;;;;;;;;;;;;;;;;;5056636;28;19955;-80
2022/08/07 04:11:03;;;;;;;;;;;;;;;;;;5074324;28;19920;-80
2022/08/07 04:13:28;;;;;;;;;;;;;;;;;;5038072;28;19971;-79
2022/08/07 04:15:54;;;;;;;;;;;;;;;;;;5056307;28;19927;-79
2022/08/07 04:18:20;;;;;;;;;;;;;;;;;;5074181;28;19916;-79
2022/08/07 04:20:45;;;;;;;;;;;;;;;;;;5039738;28;19913;-80
2022/08/07 04:23:11;;;;;;;;;;;;;;;;;;5022984;28;19909;-79
2022/08/07 04:25:37;;;;;;;;;;;;;;;;;;5039748;28;19916;-79
2022/08/07 04:28:03;;;;;;;;;;;;;;;;;;5039591;28;19978;-79
2022/08/07 04:30:28;;;;;;;;;;;;;;;;;;5039578;28;19920;-78
2022/08/07 04:32:58;;;;;;;;;;;;;;;;;;5039050;28;19963;-80
2022/08/07 04:35:23;;;;;;;;;;;;;;;;;;5039622;28;19947;-80
2022/08/07 04:37:50;;;;;;;;;;;;;;;;;;5056008;28;19908;-78
2022/08/07 04:40:16;;;;;;;;;;;;;;;;;;5055941;28;19912;-80
2022/08/07 04:42:42;;;;;;;;;;;;;;;;;;5055327;28;19916;-79
2022/08/07 04:45:10;;;;;;;;;;;;;;;;;;5039422;28;20372;-79
2022/08/07 04:47:36;;;;;;;;;;;;;;;;;;5055899;28;19970;-80
2022/08/07 04:50:02;;;;;;;;;;;;;;;;;;5022883;28;19935;-79
2022/08/07 04:52:29;;;;;;;;;;;;;;;;;;5055503;28;19954;-79
2022/08/07 04:54:56;;;;;;;;;;;;;;;;;;5055478;28;19919;-80
2022/08/07 04:57:22;;;;;;;;;;;;;;;;;;5073353;28;19942;-78
2022/08/07 04:59:47;;;;;;;;;;;;;;;;;;5038965;28;19927;-79
2022/08/07 05:02:13;;;;;;;;;;;;;;;;;;5073265;28;19913;-79
2022/08/07 05:04:39;;;;;;;;;;;;;;;;;;5038606;28;19919;-81
2022/08/07 05:07:04;;;;;;;;;;;;;;;;;;5055435;28;19913;-79
2022/08/07 05:09:30;;;;;;;;;;;;;;;;;;5055435;28;19908;-80
2022/08/07 05:11:55;;;;;;;;;;;;;;;;;;5055545;28;20358;-81
2022/08/07 05:14:22;;;;;;;;;;;;;;;;;;5038513;28;19912;-80
2022/08/07 05:16:48;;;;;;;;;;;;;;;;;;5055227;28;20355;-79
2022/08/07 05:19:14;;;;;;;;;;;;;;;;;;5055255;28;19938;-79
2022/08/07 05:21:39;;;;;;;;;;;;;;;;;;5038602;28;20007;-80
2022/08/07 05:24:06;;;;;;;;;;;;;;;;;;5037926;28;19912;-79
2022/08/07 05:26:31;;;;;;;;;;;;;;;;;;5055113;28;19958;-79
2022/08/07 05:29:02;;;;;;;;;;;;;;;;;;5054900;28;19991;-80
2022/08/07 05:31:28;;;;;;;;;;;;;;;;;;5055080;28;20367;-80
2022/08/07 05:33:54;;;;;;;;;;;;;;;;;;5037906;28;19916;-79
2022/08/07 05:36:20;;;;;;;;;;;;;;;;;;5038306;28;19922;-79
2022/08/07 05:38:45;;;;;;;;;;;;;;;;;;5038510;28;19955;-80
2022/08/07 05:41:11;;;;;;;;;;;;;;;;;;5038120;28;19944;-79
2022/08/07 05:43:37;;;;;;;;;;;;;;;;;;5054192;28;20013;-79
2022/08/07 05:46:02;;;;;;;;;;;;;;;;;;5038203;28;19972;-79
2022/08/07 05:48:28;;;;;;;;;;;;;;;;;;5038174;28;20371;-79
2022/08/07 05:50:54;;;;;;;;;;;;;;;;;;5054514;28;20355;-79
2022/08/07 05:53:19;;;;;;;;;;;;;;;;;;5037732;28;19924;-80
2022/08/07 05:55:45;;;;;;;;;;;;;;;;;;5037906;28;19966;-78
2022/08/07 05:58:10;;;;;;;;;;;;;;;;;;5037605;28;19916;-79
2022/08/07 06:00:36;;;;;;;;;;;;;;;;;;5054417;28;19999;-79
2022/08/07 06:03:03;;;;;;;;;;;;;;;;;;5021123;28;20375;-79
2022/08/07 06:05:30;;;;;;;;;;;;;;;;;;5054371;28;19966;-80
2022/08/07 06:08:01;;;;;;;;;;;;;;;;;;5053689;28;21790;-79
2022/08/07 06:10:28;;;;;;;;;;;;;;;;;;5054265;28;20418;-80
2022/08/07 06:12:53;;;;;;;;;;;;;;;;;;5053777;28;19956;-79
2022/08/07 06:15:18;;;;;;;;;;;;;;;;;;5054285;28;19935;-80
2022/08/07 06:17:44;;;;;;;;;;;;;;;;;;5037862;28;19998;-79
2022/08/07 06:20:09;;;;;;;;;;;;;;;;;;5072074;28;19913;-79
2022/08/07 06:22:35;;;;;;;;;;;;;;;;;;5053518;28;19923;-79
2022/08/07 06:25:10;;;;;;;;;;;;;;;;;;5037511;28;20038;-79
2022/08/07 06:27:35;;;;;;;;;;;;;;;;;;5072067;28;19912;-79
2022/08/07 06:30:01;;;;;;;;;;;;;;;;;;5072045;28;19909;-80
2022/08/07 06:32:26;;;;;;;;;;;;;;;;;;5053602;28;19924;-80
2022/08/07 06:34:51;;;;;;;;;;;;;;;;;;5053784;28;19916;-79
2022/08/07 06:37:17;;;;;;;;;;;;;;;;;;5053390;28;19916;-79
2022/08/07 06:39:42;;;;;;;;;;;;;;;;;;5053985;28;20364;-79
2022/08/07 06:42:08;;;;;;;;;;;;;;;;;;5053723;28;19963;-78
2022/08/07 06:44:53;;;;;;;;;;;;;;;;;;5055960;28;19936;-80
2022/08/07 06:47:20;;;;;;;;;;;;;;;;;;5037554;28;19913;-80
2022/08/07 06:49:45;;;;;;;;;;;;;;;;;;5037286;28;19915;-80
2022/08/07 06:52:10;;;;;;;;;;;;;;;;;;5071570;28;19966;-80
2022/08/07 06:54:36;;;;;;;;;;;;;;;;;;5052996;28;20324;-80
2022/08/07 06:57:01;;;;;;;;;;;;;;;;;;5053604;28;20007;-79
2022/08/07 06:59:32;;;;;;;;;;;;;;;;;;5053546;28;19919;-81
2022/08/07 07:02:00;;;;;;;;;;;;;;;;;;5037290;28;19924;-80
2022/08/07 07:04:26;;;;;;;;;;;;;;;;;;5053425;28;19913;-79
2022/08/07 07:06:51;;;;;;;;;;;;;;;;;;5071584;28;19913;-80
2022/08/07 07:09:16;;;;;;;;;;;;;;;;;;5053659;28;19912;-79
2022/08/07 07:11:42;;;;;;;;;;;;;;;;;;5054202;28;19909;-79
2022/08/07 07:14:07;;;;;;;;;;;;;;;;;;5071459;28;19916;-80
2022/08/07 07:16:32;;;;;;;;;;;;;;;;;;5071599;28;20032;-79
2022/08/07 07:18:58;;;;;;;;;;;;;;;;;;5054110;28;20013;-80
2022/08/07 07:21:23;;;;;;;;;;;;;;;;;;5072004;28;19916;-79
2022/08/07 07:23:48;;;;;;;;;;;;;;;;;;5071777;28;20379;-80
2022/08/07 07:26:14;;;;;;;;;;;;;;;;;;5071864;28;19912;-80
2022/08/07 07:28:39;;;;;;;;;;;;;;;;;;5053517;28;20414;-80
2022/08/07 07:31:05;;;;;;;;;;;;;;;;;;5053443;28;19919;-79
2022/08/07 07:33:30;;;;;;;;;;;;;;;;;;5071951;28;20379;-80
2022/08/07 07:35:55;;;;;;;;;;;;;;;;;;5071328;28;20326;-77
2022/08/07 07:38:21;;;;;;;;;;;;;;;;;;5071287;28;19991;-78
2022/08/07 07:40:46;;;;;;;;;;;;;;;;;;5071492;28;19960;-79
2022/08/07 07:43:11;;;;;;;;;;;;;;;;;;5053566;28;20319;-77
2022/08/07 07:45:37;;;;;;;;;;;;;;;;;;5073115;28;19923;-79
2022/08/07 07:48:02;;;;;;;;;;;;;;;;;;5075809;28;20003;-79
2022/08/07 07:50:28;;;;;;;;;;;;;;;;;;5059960;28;20394;-79
2022/08/07 07:52:53;;;;;;;;;;;;;;;;;;5078202;28;19928;-78
2022/08/07 07:55:18;;;;;;;;;;;;;;;;;;5060209;28;19924;-78
2022/08/07 07:57:44;;;;;;;;;;;;;;;;;;5058013;28;19913;-79
2022/08/07 08:00:09;;;;;;;;;;;;;;;;;;5056989;28;20410;-80
2022/08/07 08:02:37;;;;;;;;;;;;;;;;;;5074216;28;19923;-79
2022/08/07 08:05:03;;;;;;;;;;;;;;;;;;5074733;28;19912;-79
2022/08/07 08:07:28;;;;;;;;;;;;;;;;;;5040466;28;20022;-78
2022/08/07 08:09:53;;;;;;;;;;;;;;;;;;5056983;28;19956;-79
2022/08/07 08:12:19;;;;;;;;;;;;;;;;;;5056493;28;19913;-78
2022/08/07 08:14:44;;;;;;;;;;;;;;;;;;5056135;28;20006;-78
2022/08/07 08:17:10;;;;;;;;;;;;;;;;;;5056339;28;19947;-78
2022/08/07 08:19:35;;;;;;;;;;;;;;;;;;5074062;28;19973;-78
2022/08/07 08:27:28;;;;;;;;;;;;;;;;;;5074399;28;19913;-79
2022/08/07 08:29:54;;;;;;;;;;;;;;;;;;5056744;28;19908;-78
2022/08/07 08:32:19;;;;;;;;;;;;;;;;;;5073730;28;19916;-78
2022/08/07 08:34:45;;;;;;;;;;;;;;;;;;5073983;28;19920;-79
2022/08/07 08:37:10;;;;;;;;;;;;;;;;;;5056188;28;19977;-78
2022/08/07 08:39:35;;;;;;;;;;;;;;;;;;5073956;28;19935;-78
2022/08/07 08:42:01;;;;;;;;;;;;;;;;;;5056348;28;19916;-77
2022/08/07 08:44:26;;;;;;;;;;;;;;;;;;5023192;28;20482;-78
2022/08/07 08:46:51;;;;;;;;;;;;;;;;;;5039374;28;20003;-77
2022/08/07 08:49:17;;;;;;;;;;;;;;;;;;5074006;28;19916;-78
2022/08/07 08:51:42;;;;;;;;;;;;;;;;;;5056282;28;19912;-78
2022/08/07 08:54:08;;;;;;;;;;;;;;;;;;5073848;28;19959;-78
2022/08/07 08:56:33;;;;;;;;;;;;;;;;;;5039638;28;20010;-78
2022/08/07 08:58:58;;;;;;;;;;;;;;;;;;5055726;28;19913;-79
2022/08/07 09:01:24;;;;;;;;;;;;;;;;;;5040082;28;20401;-79
2022/08/07 09:03:49;;;;;;;;;;;;;;;;;;5055677;28;19916;-80
2022/08/07 09:06:15;;;;;;;;;;;;;;;;;;5073896;28;20352;-80
2022/08/07 09:08:40;;;;;;;;;;;;;;;;;;5066059;28;19915;-79
2022/08/07 09:11:06;;;;;;;;;;;;;;;;;;5075234;28;20295;-79
2022/08/07 09:13:31;;;;;;;;;;;;;;;;;;5055119;28;19938;-78
2022/08/07 09:15:56;;;;;;;;;;;;;;;;;;5073562;28;19974;-80
2022/08/07 09:18:22;;;;;;;;;;;;;;;;;;5038731;28;19916;-79
2022/08/07 09:20:48;;;;;;;;;;;;;;;;;;5055042;28;19929;-78
2022/08/07 09:23:14;;;;;;;;;;;;;;;;;;5072416;28;20375;-78
2022/08/07 09:25:39;;;;;;;;;;;;;;;;;;5072765;28;19965;-79
2022/08/07 09:28:04;;;;;;;;;;;;;;;;;;5038476;28;19913;-80
2022/08/07 09:30:30;;;;;;;;;;;;;;;;;;5054958;28;20341;-77
2022/08/07 09:32:55;;;;;;;;;;;;;;;;;;5064774;22;19901;-77
2022/08/07 09:35:21;;;;;;;;;;;;;;;;;;5054775;28;19916;-79
2022/08/07 09:37:46;;;;;;;;;;;;;;;;;;5072789;28;20299;-76
2022/08/07 09:40:11;;;;;;;;;;;;;;;;;;5054571;28;20367;-78
2022/08/07 09:42:37;;;;;;;;;;;;;;;;;;5054347;28;20332;-78
2022/08/07 09:45:03;;;;;;;;;;;;;;;;;;5072644;28;20398;-79
2022/08/07 09:47:29;;;;;;;;;;;;;;;;;;5054519;28;19912;-78
2022/08/07 09:49:54;;;;;;;;;;;;;;;;;;5072650;28;19916;-77
2022/08/07 09:52:20;;;;;;;;;;;;;;;;;;5054602;28;19924;-78
2022/08/07 09:54:46;;;;;;;;;;;;;;;;;;5072338;28;20019;-78
2022/08/07 09:57:11;;;;;;;;;;;;;;;;;;5072609;28;20005;-77
2022/08/07 09:59:37;;;;;;;;;;;;;;;;;;5072266;28;20290;-78
2022/08/07 10:02:02;;;;;;;;;;;;;;;;;;5072017;28;19916;-76
2022/08/07 10:04:28;;;;;;;;;;;;;;;;;;5071676;28;19970;-78
2022/08/07 10:06:53;;;;;;;;;;;;;;;;;;5072480;28;20057;-79
2022/08/07 10:09:18;;;;;;;;;;;;;;;;;;5054352;28;20014;-77
2022/08/07 10:11:44;;;;;;;;;;;;;;;;;;5072090;28;19952;-77
2022/08/07 10:14:09;;;;;;;;;;;;;;;;;;5071836;28;20386;-77
2022/08/07 10:16:35;;;;;;;;;;;;;;;;;;5054400;28;20406;-77
2022/08/07 10:19:02;;;;;;;;;;;;;;;;;;5072127;28;20283;-79
2022/08/07 10:21:27;;;;;;;;;;;;;;;;;;5054356;28;19916;-76
2022/08/07 10:23:53;;;;;;;;;;;;;;;;;;5071830;28;19920;-76
2022/08/07 10:26:18;;;;;;;;;;;;;;;;;;5054210;28;20291;-77
2022/08/07 10:28:43;;;;;;;;;;;;;;;;;;5071935;28;19946;-77
2022/08/07 10:31:09;;;;;;;;;;;;;;;;;;5037561;28;19913;-77
2022/08/07 10:33:34;;;;;;;;;;;;;;;;;;5071181;28;19967;-76
2022/08/07 10:35:59;;;;;;;;;;;;;;;;;;5071731;28;20011;-77
2022/08/07 10:38:25;;;;;;;;;;;;;;;;;;5054008;28;19912;-76
2022/08/07 10:40:50;;;;;;;;;;;;;;;;;;5054185;28;19912;-77
2022/08/07 10:43:15;;;;;;;;;;;;;;;;;;5071401;28;20398;-77
2022/08/07 10:45:41;;;;;;;;;;;;;;;;;;5071892;28;20344;-77
2022/08/07 10:48:06;;;;;;;;;;;;;;;;;;5053982;28;19919;-77
2022/08/07 10:50:32;;;;;;;;;;;;;;;;;;5053724;28;20453;-77
2022/08/07 10:52:57;;;;;;;;;;;;;;;;;;5071431;28;19970;-76
2022/08/07 10:55:23;;;;;;;;;;;;;;;;;;5071388;28;19913;-77
2022/08/07 10:57:48;;;;;;;;;;;;;;;;;;5071593;28;20402;-76
2022/08/07 11:00:15;;;;;;;;;;;;;;;;;;5053295;28;19912;-77
2022/08/07 11:02:40;;;;;;;;;;;;;;;;;;5070961;28;19917;-77
2022/08/07 11:05:05;;;;;;;;;;;;;;;;;;5071413;28;20397;-77
2022/08/07 11:07:31;;;;;;;;;;;;;;;;;;5037055;28;19913;-76
2022/08/07 11:09:56;;;;;;;;;;;;;;;;;;5053521;28;19908;-76
2022/08/07 11:12:22;;;;;;;;;;;;;;;;;;5071354;28;19912;-77
2022/08/07 11:14:47;;;;;;;;;;;;;;;;;;5070994;28;19919;-79
2022/08/07 11:17:12;;;;;;;;;;;;;;;;;;5071649;28;19924;-78
2022/08/07 11:19:37;;;;;;;;;;;;;;;;;;5071593;28;19919;-76
2022/08/07 11:22:03;;;;;;;;;;;;;;;;;;5071920;28;20451;-78
2022/08/07 11:24:28;;;;;;;;;;;;;;;;;;5057298;28;19913;-75
2022/08/07 11:26:54;;;;;;;;;;;;;;;;;;5058008;28;19967;-77
2022/08/07 11:29:19;;;;;;;;;;;;;;;;;;5057630;28;20395;-78
2022/08/07 11:31:45;;;;;;;;;;;;;;;;;;5075750;28;19916;-77
2022/08/07 11:34:10;;;;;;;;;;;;;;;;;;5056614;28;19916;-77
2022/08/07 11:36:35;;;;;;;;;;;;;;;;;;5074883;28;19920;-77
2022/08/07 11:39:01;;;;;;;;;;;;;;;;;;5074849;28;19919;-77
2022/08/07 11:41:27;;;;;;;;;;;;;;;;;;5074877;28;19918;-76
2022/08/07 11:43:52;;;;;;;;;;;;;;;;;;5074199;28;20351;-78
2022/08/07 11:46:17;;;;;;;;;;;;;;;;;;5057112;28;19912;-78
2022/08/07 11:48:43;;;;;;;;;;;;;;;;;;5057018;28;20004;-77
2022/08/07 11:51:08;;;;;;;;;;;;;;;;;;5074658;28;19958;-78
2022/08/07 11:53:34;;;;;;;;;;;;;;;;;;5074147;28;20458;-77
2022/08/07 11:55:59;;;;;;;;;;;;;;;;;;5074001;28;20434;-77
2022/08/07 11:58:25;;;;;;;;;;;;;;;;;;5056810;28;19986;-78
2022/08/07 12:00:50;;;;;;;;;;;;;;;;;;5056572;28;20418;-77
2022/08/07 12:03:16;;;;;;;;;;;;;;;;;;5055979;28;20318;-74
2022/08/07 12:05:41;;;;;;;;;;;;;;;;;;5074712;28;19966;-73
2022/08/07 12:08:06;;;;;;;;;;;;;;;;;;5040198;28;20320;-76
2022/08/07 12:10:32;;;;;;;;;;;;;;;;;;5056539;28;20293;-76
2022/08/07 12:12:57;;;;;;;;;;;;;;;;;;5056302;28;19913;-75
2022/08/07 12:15:22;;;;;;;;;;;;;;;;;;5056797;28;19993;-76
2022/08/07 12:17:48;;;;;;;;;;;;;;;;;;5056963;28;19912;-76
2022/08/07 12:20:13;;;;;;;;;;;;;;;;;;5075370;28;19944;-74
2022/08/07 12:22:39;;;;;;;;;;;;;;;;;;5073818;28;20240;-75
2022/08/07 12:27:48;;;;;;;;;;;;;;;;;;5056719;28;19913;-75
2022/08/07 12:30:16;;;;;;;;;;;;;;;;;;5074027;28;19982;-75
2022/08/07 12:32:51;;;;;;;;;;;;;;;;;;5040009;28;19921;-76
2022/08/07 12:35:16;;;;;;;;;;;;;;;;;;5054675;28;19916;-76
2022/08/07 12:37:42;;;;;;;;;;;;;;;;;;5073847;28;19934;-75
2022/08/07 12:40:07;;;;;;;;;;;;;;;;;;5074225;28;19912;-76
2022/08/07 12:42:32;;;;;;;;;;;;;;;;;;5055363;28;19920;-76
2022/08/07 12:44:58;;;;;;;;;;;;;;;;;;5073426;28;20070;-77
2022/08/07 12:47:23;;;;;;;;;;;;;;;;;;5073718;28;19920;-74
2022/08/07 12:49:49;;;;;;;;;;;;;;;;;;5073590;28;19913;-76
2022/08/07 12:52:14;;;;;;;;;;;;;;;;;;5073536;28;19953;-75
2022/08/07 12:54:40;;;;;;;;;;;;;;;;;;5073340;28;19912;-76
2022/08/07 12:57:05;;;;;;;;;;;;;;;;;;5055495;28;20007;-77
2022/08/07 12:59:31;;;;;;;;;;;;;;;;;;5073310;28;19912;-76
2022/08/07 13:01:56;;;;;;;;;;;;;;;;;;5073072;28;19923;-75
2022/08/07 13:04:21;;;;;;;;;;;;;;;;;;5072773;28;19920;-75
2022/08/07 13:06:47;;;;;;;;;;;;;;;;;;5055188;28;20379;-75
2022/08/07 13:09:12;;;;;;;;;;;;;;;;;;5055292;28;20346;-77
2022/08/07 13:11:38;;;;;;;;;;;;;;;;;;5073412;28;20364;-76
2022/08/07 13:14:03;;;;;;;;;;;;;;;;;;5072633;28;19917;-77
2022/08/07 13:16:29;;;;;;;;;;;;;;;;;;5073143;28;20346;-77
2022/08/07 13:18:54;;;;;;;;;;;;;;;;;;5073544;28;20210;-76
2022/08/07 13:21:20;;;;;;;;;;;;;;;;;;5073107;28;19916;-77
2022/08/07 13:23:46;;;;;;;;;;;;;;;;;;5072456;28;19916;-76
2022/08/07 13:26:11;;;;;;;;;;;;;;;;;;5072843;28;19919;-76
2022/08/07 13:28:36;;;;;;;;;;;;;;;;;;5072762;28;20281;-74
2022/08/07 13:31:02;;;;;;;;;;;;;;;;;;5054661;28;19912;-77
2022/08/07 13:33:27;;;;;;;;;;;;;;;;;;5072204;28;20310;-77
2022/08/07 13:35:54;;;;;;;;;;;;;;;;;;5072905;28;19935;-75
2022/08/07 13:38:19;;;;;;;;;;;;;;;;;;5072697;28;20007;-74
2022/08/07 13:40:44;;;;;;;;;;;;;;;;;;5054945;28;19963;-76
2022/08/07 13:43:10;;;;;;;;;;;;;;;;;;5072032;28;20331;-76
2022/08/07 13:45:35;;;;;;;;;;;;;;;;;;5054667;28;20366;-76
2022/08/07 13:48:01;;;;;;;;;;;;;;;;;;5054738;28;19915;-75
2022/08/07 13:50:26;;;;;;;;;;;;;;;;;;5054956;28;19912;-77
2022/08/07 13:52:51;;;;;;;;;;;;;;;;;;5072036;28;20258;-76
2022/08/07 13:55:18;;;;;;;;;;;;;;;;;;5037638;28;19912;-74
2022/08/07 13:57:43;;;;;;;;;;;;;;;;;;5055399;28;19913;-77
2022/08/07 14:00:09;;;;;;;;;;;;;;;;;;5054182;28;19912;-75
2022/08/07 14:02:37;;;;;;;;;;;;;;;;;;5071724;28;20375;-76
2022/08/07 14:05:03;;;;;;;;;;;;;;;;;;5072426;28;19912;-74
2022/08/07 14:07:28;;;;;;;;;;;;;;;;;;5054464;28;20560;-77
2022/08/07 14:09:54;;;;;;;;;;;;;;;;;;5054029;28;19919;-77
2022/08/07 14:12:19;;;;;;;;;;;;;;;;;;5072609;28;19952;-75
2022/08/07 14:14:45;;;;;;;;;;;;;;;;;;5054608;28;20003;-75
2022/08/07 14:17:10;;;;;;;;;;;;;;;;;;5072404;28;19929;-77
2022/08/07 14:19:36;;;;;;;;;;;;;;;;;;5054622;28;19936;-76
2022/08/07 14:22:01;;;;;;;;;;;;;;;;;;5054451;28;19920;-76
2022/08/07 14:24:26;;;;;;;;;;;;;;;;;;5037386;28;19962;-75
2022/08/07 14:26:52;;;;;;;;;;;;;;;;;;5072624;28;19966;-77
2022/08/07 14:29:17;;;;;;;;;;;;;;;;;;5055326;28;19912;-76
2022/08/07 14:31:43;;;;;;;;;;;;;;;;;;5072984;28;20383;-76
2022/08/07 14:34:09;;;;;;;;;;;;;;;;;;5072947;28;20003;-76
2022/08/07 14:36:34;;;;;;;;;;;;;;;;;;5073072;28;19955;-76
2022/08/07 14:38:59;;;;;;;;;;;;;;;;;;5055644;28;19912;-78
2022/08/07 14:41:25;;;;;;;;;;;;;;;;;;5056987;28;19920;-76
2022/08/07 14:43:50;;;;;;;;;;;;;;;;;;5056756;28;19913;-78
2022/08/07 14:46:16;;;;;;;;;;;;;;;;;;5057223;28;19919;-77
2022/08/07 14:48:41;;;;;;;;;;;;;;;;;;5054352;28;20429;-75
2022/08/07 14:51:07;;;;;;;;;;;;;;;;;;5072816;28;20307;-77
2022/08/07 14:53:32;;;;;;;;;;;;;;;;;;5037124;28;19959;-74
2022/08/07 14:55:58;;;;;;;;;;;;;;;;;;5071649;28;19912;-76
2022/08/07 14:58:23;;;;;;;;;;;;;;;;;;5074403;28;20470;-74
2022/08/07 15:00:51;;;;;;;;;;;;;;;;;;5075966;28;19912;-76
2022/08/07 15:03:17;;;;;;;;;;;;;;;;;;5075276;28;20003;-75
2022/08/07 15:05:42;;;;;;;;;;;;;;;;;;5075514;28;20434;-75
2022/08/07 15:08:08;;;;;;;;;;;;;;;;;;5075505;28;19920;-75
2022/08/07 15:10:33;;;;;;;;;;;;;;;;;;5075533;28;19912;-76
2022/08/07 15:12:58;;;;;;;;;;;;;;;;;;5075091;28;19912;-77
2022/08/07 15:15:24;;;;;;;;;;;;;;;;;;5057663;28;20037;-76
2022/08/07 15:17:49;;;;;;;;;;;;;;;;;;5075488;28;20025;-76
2022/08/07 15:20:14;;;;;;;;;;;;;;;;;;5075411;28;20005;-76
2022/08/07 15:22:40;;;;;;;;;;;;;;;;;;5057001;28;19923;-74
2022/08/07 15:25:05;;;;;;;;;;;;;;;;;;5075943;28;20457;-77
2022/08/07 15:27:31;;;;;;;;;;;;;;;;;;5057360;28;19912;-76
2022/08/07 15:29:56;;;;;;;;;;;;;;;;;;5074932;28;19991;-75
2022/08/07 15:32:22;;;;;;;;;;;;;;;;;;5040698;28;19912;-75
2022/08/07 15:34:47;;;;;;;;;;;;;;;;;;5074623;28;19938;-75
2022/08/07 15:37:13;;;;;;;;;;;;;;;;;;5057343;28;19916;-76
2022/08/07 15:39:39;;;;;;;;;;;;;;;;;;5075044;28;19913;-77
2022/08/07 15:42:05;;;;;;;;;;;;;;;;;;5074911;28;19916;-76
2022/08/07 15:44:30;;;;;;;;;;;;;;;;;;5056517;28;19912;-76
2022/08/07 15:46:55;;;;;;;;;;;;;;;;;;5074893;28;19956;-75
2022/08/07 15:49:21;;;;;;;;;;;;;;;;;;5074745;28;20409;-76
2022/08/07 15:51:46;;;;;;;;;;;;;;;;;;5074675;28;19919;-76
2022/08/07 15:54:12;;;;;;;;;;;;;;;;;;5039599;28;19916;-75
2022/08/07 15:56:37;;;;;;;;;;;;;;;;;;5074478;28;19919;-75
2022/08/07 15:59:03;;;;;;;;;;;;;;;;;;5056703;28;19912;-77
2022/08/07 16:01:28;;;;;;;;;;;;;;;;;;5074305;28;20298;-76
2022/08/07 16:03:53;;;;;;;;;;;;;;;;;;5056221;28;19912;-76
2022/08/07 16:06:19;;;;;;;;;;;;;;;;;;5056474;28;20352;-76
2022/08/07 16:08:44;;;;;;;;;;;;;;;;;;5056289;28;19917;-76
2022/08/07 16:11:10;;;;;;;;;;;;;;;;;;5055868;28;19952;-77
2022/08/07 16:13:36;;;;;;;;;;;;;;;;;;5073556;28;19913;-75
2022/08/07 16:16:01;;;;;;;;;;;;;;;;;;5074286;28;20344;-76
2022/08/07 16:18:26;;;;;;;;;;;;;;;;;;5074137;28;19939;-76
2022/08/07 16:20:52;;;;;;;;;;;;;;;;;;5074161;28;19968;-76
2022/08/07 16:23:17;;;;;;;;;;;;;;;;;;5073392;28;19917;-76
2022/08/07 16:25:43;;;;;;;;;;;;;;;;;;5056260;28;19962;-77
2022/08/07 16:28:08;;;;;;;;;;;;;;;;;;5073966;28;20324;-76
2022/08/07 16:30:33;;;;;;;;;;;;;;;;;;5073997;28;20387;-77
2022/08/07 16:32:59;;;;;;;;;;;;;;;;;;5055687;28;19915;-75
2022/08/07 16:35:24;;;;;;;;;;;;;;;;;;5074079;28;20003;-77
2022/08/07 16:37:51;;;;;;;;;;;;;;;;;;5056711;28;19920;-77
2022/08/07 16:40:17;;;;;;;;;;;;;;;;;;5056114;28;19939;-77
2022/08/07 16:42:42;;;;;;;;;;;;;;;;;;5073289;28;20015;-76